Terminal Aerodrome Forecast
Issued by NWS

Home | Current Version | Previous Version | Graphics & Text | Print | Product List | Glossary On
Versions: 1 2 3 4 5 6 7 8 9 10 11 12
000
FTUS45 KGGW 101127
TAFGDV
TAF
KGDV 101127Z 1012/1112 28015KT P6SM SCT170
     FM110000 28015G25KT P6SM SKC WS020/31040KT
     FM110600 30020G30KT P6SM SKC WS020/31050KT
     FM110900 29017G26KT P6SM FEW220=

USA.gov is the U.S. government's official web portal to all federal, state and local government web resources and services.